sensor_id;sensor_type;location;lat;lon;timestamp;P1;durP1;ratioP1;P2;durP2;ratioP2
20970;SDS011;10644;48.834;10.088;2022-12-10T00:02:19;47.10;;;23.63;;
20970;SDS011;10644;48.834;10.088;2022-12-10T00:04:44;43.77;;;22.63;;
20970;SDS011;10644;48.834;10.088;2022-12-10T00:07:12;53.57;;;24.70;;
20970;SDS011;10644;48.834;10.088;2022-12-10T00:09:52;47.25;;;24.17;;
20970;SDS011;10644;48.834;10.088;2022-12-10T00:12:18;55.70;;;26.92;;
20970;SDS011;10644;48.834;10.088;2022-12-10T00:14:43;48.47;;;22.77;;
20970;SDS011;10644;48.834;10.088;2022-12-10T00:17:10;44.37;;;23.20;;
20970;SDS011;10644;48.834;10.088;2022-12-10T00:19:35;47.28;;;23.83;;
20970;SDS011;10644;48.834;10.088;2022-12-10T00:22:01;43.40;;;22.47;;
20970;SDS011;10644;48.834;10.088;2022-12-10T00:24:28;46.90;;;23.98;;
20970;SDS011;10644;48.834;10.088;2022-12-10T00:26:53;52.22;;;23.08;;
20970;SDS011;10644;48.834;10.088;2022-12-10T00:29:30;44.75;;;22.75;;
20970;SDS011;10644;48.834;10.088;2022-12-10T00:31:55;44.63;;;22.35;;
20970;SDS011;10644;48.834;10.088;2022-12-10T00:34:20;45.97;;;23.50;;
20970;SDS011;10644;48.834;10.088;2022-12-10T00:36:46;42.00;;;22.23;;
20970;SDS011;10644;48.834;10.088;2022-12-10T00:42:05;41.92;;;21.08;;
20970;SDS011;10644;48.834;10.088;2022-12-10T00:44:36;48.95;;;21.52;;
20970;SDS011;10644;48.834;10.088;2022-12-10T00:47:06;43.88;;;21.20;;
20970;SDS011;10644;48.834;10.088;2022-12-10T00:49:38;51.28;;;24.25;;
20970;SDS011;10644;48.834;10.088;2022-12-10T00:52:03;55.92;;;22.63;;
20970;SDS011;10644;48.834;10.088;2022-12-10T00:54:32;42.83;;;21.23;;
20970;SDS011;10644;48.834;10.088;2022-12-10T00:56:58;46.90;;;21.73;;
20970;SDS011;10644;48.834;10.088;2022-12-10T00:59:25;54.28;;;22.48;;
20970;SDS011;10644;48.834;10.088;2022-12-10T01:02:09;43.03;;;21.00;;
20970;SDS011;10644;48.834;10.088;2022-12-10T01:04:52;47.00;;;22.25;;
20970;SDS011;10644;48.834;10.088;2022-12-10T01:10:07;46.30;;;24.73;;
20970;SDS011;10644;48.834;10.088;2022-12-10T01:15:14;50.92;;;25.67;;
20970;SDS011;10644;48.834;10.088;2022-12-10T01:17:47;46.03;;;24.27;;
20970;SDS011;10644;48.834;10.088;2022-12-10T01:20:13;54.40;;;25.13;;
20970;SDS011;10644;48.834;10.088;2022-12-10T01:22:38;50.53;;;21.80;;
20970;SDS011;10644;48.834;10.088;2022-12-10T01:25:04;43.93;;;22.87;;
20970;SDS011;10644;48.834;10.088;2022-12-10T01:27:31;60.05;;;25.30;;
20970;SDS011;10644;48.834;10.088;2022-12-10T01:30:14;54.17;;;23.30;;
20970;SDS011;10644;48.834;10.088;2022-12-10T01:35:26;46.72;;;21.88;;
20970;SDS011;10644;48.834;10.088;2022-12-10T01:38:01;53.55;;;22.20;;
20970;SDS011;10644;48.834;10.088;2022-12-10T01:49:26;43.22;;;21.70;;
20970;SDS011;10644;48.834;10.088;2022-12-10T01:51:58;57.17;;;23.75;;
20970;SDS011;10644;48.834;10.088;2022-12-10T01:54:32;52.67;;;22.33;;
20970;SDS011;10644;48.834;10.088;2022-12-10T01:57:02;55.42;;;21.40;;
20970;SDS011;10644;48.834;10.088;2022-12-10T01:59:39;46.30;;;21.60;;
20970;SDS011;10644;48.834;10.088;2022-12-10T02:05:02;43.53;;;20.65;;
20970;SDS011;10644;48.834;10.088;2022-12-10T02:07:39;39.10;;;20.27;;
20970;SDS011;10644;48.834;10.088;2022-12-10T02:16:34;47.30;;;21.50;;
20970;SDS011;10644;48.834;10.088;2022-12-10T02:19:07;42.67;;;21.13;;
20970;SDS011;10644;48.834;10.088;2022-12-10T02:21:46;43.78;;;21.90;;
20970;SDS011;10644;48.834;10.088;2022-12-10T02:24:28;55.50;;;21.80;;
20970;SDS011;10644;48.834;10.088;2022-12-10T02:32:33;38.38;;;19.75;;
20970;SDS011;10644;48.834;10.088;2022-12-10T02:35:23;37.05;;;19.90;;
20970;SDS011;10644;48.834;10.088;2022-12-10T02:40:34;40.95;;;20.88;;
20970;SDS011;10644;48.834;10.088;2022-12-10T02:43:08;41.40;;;20.48;;
20970;SDS011;10644;48.834;10.088;2022-12-10T02:45:39;43.45;;;20.77;;
20970;SDS011;10644;48.834;10.088;2022-12-10T02:51:04;46.05;;;20.80;;
20970;SDS011;10644;48.834;10.088;2022-12-10T03:17:06;54.70;;;21.83;;
20970;SDS011;10644;48.834;10.088;2022-12-10T03:19:44;48.00;;;22.05;;
20970;SDS011;10644;48.834;10.088;2022-12-10T03:22:17;47.25;;;21.60;;
20970;SDS011;10644;48.834;10.088;2022-12-10T03:24:50;43.50;;;20.05;;
20970;SDS011;10644;48.834;10.088;2022-12-10T03:27:25;44.83;;;20.95;;
20970;SDS011;10644;48.834;10.088;2022-12-10T03:30:05;43.53;;;20.23;;
20970;SDS011;10644;48.834;10.088;2022-12-10T03:38:09;53.58;;;22.48;;
20970;SDS011;10644;48.834;10.088;2022-12-10T03:40:38;44.42;;;20.85;;
20970;SDS011;10644;48.834;10.088;2022-12-10T03:43:11;49.22;;;22.10;;
20970;SDS011;10644;48.834;10.088;2022-12-10T03:45:37;47.58;;;22.55;;
20970;SDS011;10644;48.834;10.088;2022-12-10T03:51:06;40.20;;;20.10;;
20970;SDS011;10644;48.834;10.088;2022-12-10T03:56:34;36.80;;;21.20;;
20970;SDS011;10644;48.834;10.088;2022-12-10T03:59:00;44.00;;;19.33;;
20970;SDS011;10644;48.834;10.088;2022-12-10T04:04:11;44.70;;;21.80;;
20970;SDS011;10644;48.834;10.088;2022-12-10T04:12:17;41.80;;;20.70;;
20970;SDS011;10644;48.834;10.088;2022-12-10T04:21:05;41.95;;;20.70;;
20970;SDS011;10644;48.834;10.088;2022-12-10T04:23:49;44.33;;;21.65;;
20970;SDS011;10644;48.834;10.088;2022-12-10T04:29:22;42.30;;;20.05;;
20970;SDS011;10644;48.834;10.088;2022-12-10T04:37:45;39.50;;;20.40;;
20970;SDS011;10644;48.834;10.088;2022-12-10T04:43:26;50.33;;;21.92;;
20970;SDS011;10644;48.834;10.088;2022-12-10T04:46:02;42.05;;;22.23;;
20970;SDS011;10644;48.834;10.088;2022-12-10T04:48:28;39.72;;;21.55;;
20970;SDS011;10644;48.834;10.088;2022-12-10T04:51:04;43.40;;;22.02;;
20970;SDS011;10644;48.834;10.088;2022-12-10T04:59:29;47.30;;;20.70;;
20970;SDS011;10644;48.834;10.088;2022-12-10T05:01:54;48.95;;;22.30;;
20970;SDS011;10644;48.834;10.088;2022-12-10T05:04:20;46.30;;;22.43;;
20970;SDS011;10644;48.834;10.088;2022-12-10T05:10:01;46.58;;;22.95;;
20970;SDS011;10644;48.834;10.088;2022-12-10T05:12:29;41.78;;;21.95;;
20970;SDS011;10644;48.834;10.088;2022-12-10T05:14:55;49.93;;;22.50;;
20970;SDS011;10644;48.834;10.088;2022-12-10T05:17:37;47.30;;;23.30;;
20970;SDS011;10644;48.834;10.088;2022-12-10T05:20:08;52.03;;;23.00;;
20970;SDS011;10644;48.834;10.088;2022-12-10T05:22:45;45.50;;;21.48;;
20970;SDS011;10644;48.834;10.088;2022-12-10T05:25:43;41.78;;;20.88;;
20970;SDS011;10644;48.834;10.088;2022-12-10T05:28:24;47.33;;;21.52;;
20970;SDS011;10644;48.834;10.088;2022-12-10T05:33:56;46.70;;;22.05;;
20970;SDS011;10644;48.834;10.088;2022-12-10T05:42:08;45.22;;;23.55;;
20970;SDS011;10644;48.834;10.088;2022-12-10T05:44:34;51.08;;;24.20;;
20970;SDS011;10644;48.834;10.088;2022-12-10T05:47:06;41.33;;;20.90;;
20970;SDS011;10644;48.834;10.088;2022-12-10T05:49:43;40.97;;;20.92;;
20970;SDS011;10644;48.834;10.088;2022-12-10T05:52:17;39.75;;;18.90;;
20970;SDS011;10644;48.834;10.088;2022-12-10T05:54:43;41.40;;;19.40;;
20970;SDS011;10644;48.834;10.088;2022-12-10T05:57:10;32.07;;;16.13;;
20970;SDS011;10644;48.834;10.088;2022-12-10T06:02:32;26.88;;;14.23;;
20970;SDS011;10644;48.834;10.088;2022-12-10T06:05:07;31.10;;;15.70;;
20970;SDS011;10644;48.834;10.088;2022-12-10T06:07:50;31.40;;;14.60;;
20970;SDS011;10644;48.834;10.088;2022-12-10T06:10:22;38.58;;;18.08;;
20970;SDS011;10644;48.834;10.088;2022-12-10T06:18:33;40.50;;;19.88;;
20970;SDS011;10644;48.834;10.088;2022-12-10T06:21:02;46.47;;;19.70;;
20970;SDS011;10644;48.834;10.088;2022-12-10T06:26:46;41.17;;;19.52;;
20970;SDS011;10644;48.834;10.088;2022-12-10T06:29:22;41.97;;;20.73;;
20970;SDS011;10644;48.834;10.088;2022-12-10T06:31:52;44.67;;;24.08;;
20970;SDS011;10644;48.834;10.088;2022-12-10T06:34:35;50.35;;;24.73;;
20970;SDS011;10644;48.834;10.088;2022-12-10T06:37:13;43.08;;;20.08;;
20970;SDS011;10644;48.834;10.088;2022-12-10T06:39:38;36.25;;;18.50;;
20970;SDS011;10644;48.834;10.088;2022-12-10T06:42:03;49.43;;;19.90;;
20970;SDS011;10644;48.834;10.088;2022-12-10T06:44:31;43.90;;;20.23;;
20970;SDS011;10644;48.834;10.088;2022-12-10T06:47:05;42.75;;;20.33;;
20970;SDS011;10644;48.834;10.088;2022-12-10T06:49:30;47.65;;;21.65;;
20970;SDS011;10644;48.834;10.088;2022-12-10T06:52:08;48.03;;;24.60;;
20970;SDS011;10644;48.834;10.088;2022-12-10T06:54:36;60.85;;;27.60;;
20970;SDS011;10644;48.834;10.088;2022-12-10T06:57:09;80.78;;;26.13;;
20970;SDS011;10644;48.834;10.088;2022-12-10T07:05:30;51.15;;;24.75;;
20970;SDS011;10644;48.834;10.088;2022-12-10T07:07:55;44.60;;;20.38;;
20970;SDS011;10644;48.834;10.088;2022-12-10T07:10:22;45.33;;;21.43;;
20970;SDS011;10644;48.834;10.088;2022-12-10T07:12:48;40.55;;;19.63;;
20970;SDS011;10644;48.834;10.088;2022-12-10T07:15:13;49.90;;;22.53;;
20970;SDS011;10644;48.834;10.088;2022-12-10T07:20:29;42.17;;;20.42;;
20970;SDS011;10644;48.834;10.088;2022-12-10T07:25:40;40.35;;;21.00;;
20970;SDS011;10644;48.834;10.088;2022-12-10T07:28:16;52.37;;;22.10;;
20970;SDS011;10644;48.834;10.088;2022-12-10T07:31:06;46.47;;;21.00;;
20970;SDS011;10644;48.834;10.088;2022-12-10T07:33:36;46.65;;;21.20;;
20970;SDS011;10644;48.834;10.088;2022-12-10T07:36:06;43.25;;;21.25;;
20970;SDS011;10644;48.834;10.088;2022-12-10T07:38:47;41.88;;;20.27;;
20970;SDS011;10644;48.834;10.088;2022-12-10T07:41:22;41.47;;;19.75;;
20970;SDS011;10644;48.834;10.088;2022-12-10T07:43:56;44.85;;;21.08;;
20970;SDS011;10644;48.834;10.088;2022-12-10T07:46:28;44.85;;;21.73;;
20970;SDS011;10644;48.834;10.088;2022-12-10T07:49:04;44.85;;;21.33;;
20970;SDS011;10644;48.834;10.088;2022-12-10T07:51:49;48.92;;;23.55;;
20970;SDS011;10644;48.834;10.088;2022-12-10T07:54:16;49.45;;;23.52;;
20970;SDS011;10644;48.834;10.088;2022-12-10T07:56:47;42.70;;;21.20;;
20970;SDS011;10644;48.834;10.088;2022-12-10T07:59:12;43.60;;;20.73;;
20970;SDS011;10644;48.834;10.088;2022-12-10T08:01:39;44.30;;;22.30;;
20970;SDS011;10644;48.834;10.088;2022-12-10T08:04:05;44.33;;;23.80;;
20970;SDS011;10644;48.834;10.088;2022-12-10T08:06:35;47.50;;;22.83;;
20970;SDS011;10644;48.834;10.088;2022-12-10T08:09:01;51.28;;;22.17;;
20970;SDS011;10644;48.834;10.088;2022-12-10T08:11:26;68.00;;;31.50;;
20970;SDS011;10644;48.834;10.088;2022-12-10T08:13:53;44.85;;;22.20;;
20970;SDS011;10644;48.834;10.088;2022-12-10T08:16:19;45.77;;;25.30;;
20970;SDS011;10644;48.834;10.088;2022-12-10T08:27:40;43.53;;;22.67;;
20970;SDS011;10644;48.834;10.088;2022-12-10T08:30:19;52.83;;;22.55;;
20970;SDS011;10644;48.834;10.088;2022-12-10T08:32:55;44.97;;;21.75;;
20970;SDS011;10644;48.834;10.088;2022-12-10T08:35:20;47.97;;;22.73;;
20970;SDS011;10644;48.834;10.088;2022-12-10T08:38:03;50.67;;;21.10;;
20970;SDS011;10644;48.834;10.088;2022-12-10T08:40:40;45.30;;;21.55;;
20970;SDS011;10644;48.834;10.088;2022-12-10T08:43:07;52.10;;;21.90;;
20970;SDS011;10644;48.834;10.088;2022-12-10T08:45:39;47.35;;;22.67;;
20970;SDS011;10644;48.834;10.088;2022-12-10T08:48:10;52.63;;;23.75;;
20970;SDS011;10644;48.834;10.088;2022-12-10T08:50:37;42.45;;;21.10;;
20970;SDS011;10644;48.834;10.088;2022-12-10T08:53:03;47.33;;;22.77;;
20970;SDS011;10644;48.834;10.088;2022-12-10T08:55:39;68.27;;;26.60;;
20970;SDS011;10644;48.834;10.088;2022-12-10T09:01:11;54.40;;;24.35;;
20970;SDS011;10644;48.834;10.088;2022-12-10T09:03:48;59.08;;;28.08;;
20970;SDS011;10644;48.834;10.088;2022-12-10T09:06:21;45.65;;;22.63;;
20970;SDS011;10644;48.834;10.088;2022-12-10T09:08:58;47.35;;;23.15;;
20970;SDS011;10644;48.834;10.088;2022-12-10T09:11:27;57.20;;;23.38;;
20970;SDS011;10644;48.834;10.088;2022-12-10T09:14:03;53.47;;;22.85;;
20970;SDS011;10644;48.834;10.088;2022-12-10T09:16:30;54.17;;;20.92;;
20970;SDS011;10644;48.834;10.088;2022-12-10T09:19:12;43.13;;;20.88;;
20970;SDS011;10644;48.834;10.088;2022-12-10T09:21:40;50.00;;;22.88;;
20970;SDS011;10644;48.834;10.088;2022-12-10T09:24:18;42.45;;;22.05;;
20970;SDS011;10644;48.834;10.088;2022-12-10T09:26:46;41.30;;;19.60;;
20970;SDS011;10644;48.834;10.088;2022-12-10T09:29:13;47.22;;;21.60;;
20970;SDS011;10644;48.834;10.088;2022-12-10T09:31:40;43.72;;;20.83;;
20970;SDS011;10644;48.834;10.088;2022-12-10T09:34:09;52.25;;;22.23;;
20970;SDS011;10644;48.834;10.088;2022-12-10T09:39:32;48.78;;;21.90;;
20970;SDS011;10644;48.834;10.088;2022-12-10T09:54:11;54.45;;;23.40;;
20970;SDS011;10644;48.834;10.088;2022-12-10T09:56:43;60.97;;;22.60;;
20970;SDS011;10644;48.834;10.088;2022-12-10T10:02:41;50.42;;;23.70;;
20970;SDS011;10644;48.834;10.088;2022-12-10T10:07:47;49.80;;;21.48;;
20970;SDS011;10644;48.834;10.088;2022-12-10T10:15:54;42.78;;;21.83;;
20970;SDS011;10644;48.834;10.088;2022-12-10T10:21:30;39.72;;;20.27;;
20970;SDS011;10644;48.834;10.088;2022-12-10T10:30:02;45.47;;;20.85;;
20970;SDS011;10644;48.834;10.088;2022-12-10T10:35:01;49.78;;;21.70;;
20970;SDS011;10644;48.834;10.088;2022-12-10T10:37:31;43.70;;;20.73;;
20970;SDS011;10644;48.834;10.088;2022-12-10T10:42:58;54.42;;;22.25;;
20970;SDS011;10644;48.834;10.088;2022-12-10T10:48:36;43.92;;;21.30;;
20970;SDS011;10644;48.834;10.088;2022-12-10T10:53:45;52.67;;;20.67;;
20970;SDS011;10644;48.834;10.088;2022-12-10T11:02:15;43.00;;;19.80;;
20970;SDS011;10644;48.834;10.088;2022-12-10T11:14:12;49.95;;;22.13;;
20970;SDS011;10644;48.834;10.088;2022-12-10T11:17:02;45.70;;;22.30;;
20970;SDS011;10644;48.834;10.088;2022-12-10T11:34:20;38.30;;;19.80;;
20970;SDS011;10644;48.834;10.088;2022-12-10T11:46:17;38.88;;;19.52;;
20970;SDS011;10644;48.834;10.088;2022-12-10T11:49:16;47.25;;;18.92;;
20970;SDS011;10644;48.834;10.088;2022-12-10T11:51:52;38.22;;;20.58;;
20970;SDS011;10644;48.834;10.088;2022-12-10T11:58:03;39.90;;;18.33;;
20970;SDS011;10644;48.834;10.088;2022-12-10T12:00:38;37.92;;;17.70;;
20970;SDS011;10644;48.834;10.088;2022-12-10T12:08:55;42.28;;;19.60;;
20970;SDS011;10644;48.834;10.088;2022-12-10T12:23:14;39.85;;;19.35;;
20970;SDS011;10644;48.834;10.088;2022-12-10T12:26:03;45.88;;;19.20;;
20970;SDS011;10644;48.834;10.088;2022-12-10T12:29:19;48.78;;;22.25;;
20970;SDS011;10644;48.834;10.088;2022-12-10T12:37:56;44.20;;;21.58;;
20970;SDS011;10644;48.834;10.088;2022-12-10T12:40:34;40.85;;;20.52;;
20970;SDS011;10644;48.834;10.088;2022-12-10T12:43:17;49.03;;;21.38;;
20970;SDS011;10644;48.834;10.088;2022-12-10T12:52:26;50.92;;;23.88;;
20970;SDS011;10644;48.834;10.088;2022-12-10T12:57:58;47.38;;;22.55;;
20970;SDS011;10644;48.834;10.088;2022-12-10T13:06:30;55.35;;;23.48;;
20970;SDS011;10644;48.834;10.088;2022-12-10T13:23:02;42.45;;;20.30;;
20970;SDS011;10644;48.834;10.088;2022-12-10T13:29:10;56.92;;;22.42;;
20970;SDS011;10644;48.834;10.088;2022-12-10T13:38:05;42.55;;;20.42;;
20970;SDS011;10644;48.834;10.088;2022-12-10T13:40:56;53.03;;;23.85;;
20970;SDS011;10644;48.834;10.088;2022-12-10T13:43:43;43.63;;;19.92;;
20970;SDS011;10644;48.834;10.088;2022-12-10T13:55:39;59.88;;;25.60;;
20970;SDS011;10644;48.834;10.088;2022-12-10T14:07:01;52.30;;;24.90;;
20970;SDS011;10644;48.834;10.088;2022-12-10T14:09:33;47.55;;;24.08;;
20970;SDS011;10644;48.834;10.088;2022-12-10T14:14:56;58.22;;;24.27;;
20970;SDS011;10644;48.834;10.088;2022-12-10T14:20:16;57.63;;;24.45;;
20970;SDS011;10644;48.834;10.088;2022-12-10T14:22:55;62.65;;;26.23;;
20970;SDS011;10644;48.834;10.088;2022-12-10T14:25:42;54.15;;;23.95;;
20970;SDS011;10644;48.834;10.088;2022-12-10T14:28:14;62.20;;;26.20;;
20970;SDS011;10644;48.834;10.088;2022-12-10T14:30:45;57.08;;;26.45;;
20970;SDS011;10644;48.834;10.088;2022-12-10T14:33:12;58.05;;;24.33;;
20970;SDS011;10644;48.834;10.088;2022-12-10T14:35:46;56.78;;;25.05;;
20970;SDS011;10644;48.834;10.088;2022-12-10T14:38:31;60.42;;;25.15;;
20970;SDS011;10644;48.834;10.088;2022-12-10T14:41:04;51.97;;;25.02;;
20970;SDS011;10644;48.834;10.088;2022-12-10T14:43:38;61.53;;;25.30;;
20970;SDS011;10644;48.834;10.088;2022-12-10T14:46:25;68.10;;;28.50;;
20970;SDS011;10644;48.834;10.088;2022-12-10T14:48:56;53.58;;;24.85;;
20970;SDS011;10644;48.834;10.088;2022-12-10T14:51:23;52.42;;;24.58;;
20970;SDS011;10644;48.834;10.088;2022-12-10T14:53:56;54.35;;;25.50;;
20970;SDS011;10644;48.834;10.088;2022-12-10T14:56:36;51.03;;;25.30;;
20970;SDS011;10644;48.834;10.088;2022-12-10T14:59:19;53.13;;;24.52;;
20970;SDS011;10644;48.834;10.088;2022-12-10T15:07:56;59.17;;;24.80;;
20970;SDS011;10644;48.834;10.088;2022-12-10T15:13:18;66.05;;;25.23;;
20970;SDS011;10644;48.834;10.088;2022-12-10T15:19:06;55.20;;;25.15;;
20970;SDS011;10644;48.834;10.088;2022-12-10T15:21:41;57.58;;;23.75;;
20970;SDS011;10644;48.834;10.088;2022-12-10T15:26:50;53.15;;;23.83;;
20970;SDS011;10644;48.834;10.088;2022-12-10T15:31:54;57.20;;;23.48;;
20970;SDS011;10644;48.834;10.088;2022-12-10T15:34:52;54.58;;;22.10;;
20970;SDS011;10644;48.834;10.088;2022-12-10T15:45:25;59.20;;;27.38;;
20970;SDS011;10644;48.834;10.088;2022-12-10T15:50:49;62.55;;;28.80;;
20970;SDS011;10644;48.834;10.088;2022-12-10T15:53:26;60.63;;;24.42;;
20970;SDS011;10644;48.834;10.088;2022-12-10T15:58:51;53.60;;;24.13;;
20970;SDS011;10644;48.834;10.088;2022-12-10T16:01:20;46.20;;;22.55;;
20970;SDS011;10644;48.834;10.088;2022-12-10T16:03:49;63.63;;;25.75;;
20970;SDS011;10644;48.834;10.088;2022-12-10T16:06:19;55.35;;;23.95;;
20970;SDS011;10644;48.834;10.088;2022-12-10T16:08:49;48.75;;;23.40;;
20970;SDS011;10644;48.834;10.088;2022-12-10T16:11:17;72.13;;;28.08;;
20970;SDS011;10644;48.834;10.088;2022-12-10T16:16:39;63.47;;;27.60;;
20970;SDS011;10644;48.834;10.088;2022-12-10T16:19:10;70.22;;;29.50;;
20970;SDS011;10644;48.834;10.088;2022-12-10T16:21:43;58.78;;;27.38;;
20970;SDS011;10644;48.834;10.088;2022-12-10T16:27:16;61.75;;;23.45;;
20970;SDS011;10644;48.834;10.088;2022-12-10T16:29:43;62.08;;;27.90;;
20970;SDS011;10644;48.834;10.088;2022-12-10T16:34:38;54.55;;;24.23;;
20970;SDS011;10644;48.834;10.088;2022-12-10T16:37:15;74.40;;;28.13;;
20970;SDS011;10644;48.834;10.088;2022-12-10T16:39:42;63.60;;;25.15;;
20970;SDS011;10644;48.834;10.088;2022-12-10T16:50:43;49.30;;;25.75;;
20970;SDS011;10644;48.834;10.088;2022-12-10T16:53:31;48.05;;;22.85;;
20970;SDS011;10644;48.834;10.088;2022-12-10T17:01:28;48.50;;;21.52;;
20970;SDS011;10644;48.834;10.088;2022-12-10T17:04:07;51.33;;;22.60;;
20970;SDS011;10644;48.834;10.088;2022-12-10T17:06:42;58.58;;;25.50;;
20970;SDS011;10644;48.834;10.088;2022-12-10T17:09:07;59.70;;;23.02;;
20970;SDS011;10644;48.834;10.088;2022-12-10T17:11:36;50.10;;;21.97;;
20970;SDS011;10644;48.834;10.088;2022-12-10T17:17:05;55.92;;;23.05;;
20970;SDS011;10644;48.834;10.088;2022-12-10T17:19:41;50.97;;;21.15;;
20970;SDS011;10644;48.834;10.088;2022-12-10T17:22:08;47.38;;;22.35;;
20970;SDS011;10644;48.834;10.088;2022-12-10T17:24:41;49.95;;;22.85;;
20970;SDS011;10644;48.834;10.088;2022-12-10T17:27:11;54.58;;;21.60;;
20970;SDS011;10644;48.834;10.088;2022-12-10T17:29:45;45.15;;;21.95;;
20970;SDS011;10644;48.834;10.088;2022-12-10T17:35:02;43.88;;;19.73;;
20970;SDS011;10644;48.834;10.088;2022-12-10T17:37:30;44.38;;;19.58;;
20970;SDS011;10644;48.834;10.088;2022-12-10T17:40:13;40.80;;;19.40;;
20970;SDS011;10644;48.834;10.088;2022-12-10T17:42:52;47.72;;;20.75;;
20970;SDS011;10644;48.834;10.088;2022-12-10T17:45:31;46.55;;;21.52;;
20970;SDS011;10644;48.834;10.088;2022-12-10T17:48:02;50.97;;;21.58;;
20970;SDS011;10644;48.834;10.088;2022-12-10T17:50:31;42.03;;;20.02;;
20970;SDS011;10644;48.834;10.088;2022-12-10T17:53:11;52.88;;;21.27;;
20970;SDS011;10644;48.834;10.088;2022-12-10T18:03:20;40.10;;;19.35;;
20970;SDS011;10644;48.834;10.088;2022-12-10T18:05:51;47.65;;;21.02;;
20970;SDS011;10644;48.834;10.088;2022-12-10T18:08:17;45.90;;;20.02;;
20970;SDS011;10644;48.834;10.088;2022-12-10T18:11:01;42.90;;;20.05;;
20970;SDS011;10644;48.834;10.088;2022-12-10T18:13:26;42.10;;;19.63;;
20970;SDS011;10644;48.834;10.088;2022-12-10T18:15:55;41.33;;;19.03;;
20970;SDS011;10644;48.834;10.088;2022-12-10T18:18:22;43.92;;;20.20;;
20970;SDS011;10644;48.834;10.088;2022-12-10T18:20:47;44.20;;;21.73;;
20970;SDS011;10644;48.834;10.088;2022-12-10T18:23:13;38.00;;;19.10;;
20970;SDS011;10644;48.834;10.088;2022-12-10T18:25:45;39.80;;;18.73;;
20970;SDS011;10644;48.834;10.088;2022-12-10T18:31:02;35.08;;;19.10;;
20970;SDS011;10644;48.834;10.088;2022-12-10T18:33:42;46.88;;;19.98;;
20970;SDS011;10644;48.834;10.088;2022-12-10T18:36:18;44.70;;;19.67;;
20970;SDS011;10644;48.834;10.088;2022-12-10T18:38:52;46.80;;;19.73;;
20970;SDS011;10644;48.834;10.088;2022-12-10T18:41:20;44.90;;;20.52;;
20970;SDS011;10644;48.834;10.088;2022-12-10T18:43:59;45.92;;;19.63;;
20970;SDS011;10644;48.834;10.088;2022-12-10T18:46:27;48.40;;;21.92;;
20970;SDS011;10644;48.834;10.088;2022-12-10T18:48:59;42.50;;;20.90;;
20970;SDS011;10644;48.834;10.088;2022-12-10T18:51:32;46.85;;;20.27;;
20970;SDS011;10644;48.834;10.088;2022-12-10T18:56:38;44.25;;;20.60;;
20970;SDS011;10644;48.834;10.088;2022-12-10T19:01:52;50.35;;;20.83;;
20970;SDS011;10644;48.834;10.088;2022-12-10T19:04:18;41.50;;;19.83;;
20970;SDS011;10644;48.834;10.088;2022-12-10T19:11:51;40.35;;;20.50;;
20970;SDS011;10644;48.834;10.088;2022-12-10T19:14:19;43.78;;;20.25;;
20970;SDS011;10644;48.834;10.088;2022-12-10T19:16:51;46.45;;;18.50;;
20970;SDS011;10644;48.834;10.088;2022-12-10T19:19:32;44.80;;;18.70;;
20970;SDS011;10644;48.834;10.088;2022-12-10T19:22:01;49.33;;;20.67;;
20970;SDS011;10644;48.834;10.088;2022-12-10T19:25:05;46.65;;;19.80;;
20970;SDS011;10644;48.834;10.088;2022-12-10T19:30:45;37.95;;;19.15;;
20970;SDS011;10644;48.834;10.088;2022-12-10T19:33:27;45.85;;;19.42;;
20970;SDS011;10644;48.834;10.088;2022-12-10T19:35:57;46.05;;;21.02;;
20970;SDS011;10644;48.834;10.088;2022-12-10T19:38:25;47.97;;;20.08;;
20970;SDS011;10644;48.834;10.088;2022-12-10T19:40:59;34.38;;;16.95;;
20970;SDS011;10644;48.834;10.088;2022-12-10T19:43:28;40.70;;;19.85;;
20970;SDS011;10644;48.834;10.088;2022-12-10T19:45:53;42.92;;;19.88;;
20970;SDS011;10644;48.834;10.088;2022-12-10T19:48:33;39.25;;;18.67;;
20970;SDS011;10644;48.834;10.088;2022-12-10T19:50:59;39.28;;;18.25;;
20970;SDS011;10644;48.834;10.088;2022-12-10T19:53:35;47.13;;;18.25;;
20970;SDS011;10644;48.834;10.088;2022-12-10T19:58:49;41.35;;;17.77;;
20970;SDS011;10644;48.834;10.088;2022-12-10T20:04:06;44.50;;;18.02;;
20970;SDS011;10644;48.834;10.088;2022-12-10T20:06:37;41.78;;;17.70;;
20970;SDS011;10644;48.834;10.088;2022-12-10T20:09:09;52.88;;;20.23;;
20970;SDS011;10644;48.834;10.088;2022-12-10T20:11:43;44.58;;;17.45;;
20970;SDS011;10644;48.834;10.088;2022-12-10T20:14:29;47.00;;;18.27;;
20970;SDS011;10644;48.834;10.088;2022-12-10T20:32:26;38.47;;;16.65;;
20970;SDS011;10644;48.834;10.088;2022-12-10T20:34:57;40.10;;;16.27;;
20970;SDS011;10644;48.834;10.088;2022-12-10T20:37:24;43.33;;;16.98;;
20970;SDS011;10644;48.834;10.088;2022-12-10T20:40:03;41.47;;;18.02;;
20970;SDS011;10644;48.834;10.088;2022-12-10T20:42:32;44.95;;;17.52;;
20970;SDS011;10644;48.834;10.088;2022-12-10T20:44:59;45.67;;;17.17;;
20970;SDS011;10644;48.834;10.088;2022-12-10T20:47:26;92.20;;;22.83;;
20970;SDS011;10644;48.834;10.088;2022-12-10T20:52:45;44.00;;;15.85;;
20970;SDS011;10644;48.834;10.088;2022-12-10T20:55:13;40.90;;;17.25;;
20970;SDS011;10644;48.834;10.088;2022-12-10T20:57:52;36.80;;;17.58;;
20970;SDS011;10644;48.834;10.088;2022-12-10T21:00:28;57.08;;;20.85;;
20970;SDS011;10644;48.834;10.088;2022-12-10T21:05:40;45.22;;;17.83;;
20970;SDS011;10644;48.834;10.088;2022-12-10T21:08:09;41.72;;;17.55;;
20970;SDS011;10644;48.834;10.088;2022-12-10T21:10:51;40.25;;;16.38;;
20970;SDS011;10644;48.834;10.088;2022-12-10T21:13:21;49.90;;;18.35;;
20970;SDS011;10644;48.834;10.088;2022-12-10T21:16:07;32.90;;;16.50;;
20970;SDS011;10644;48.834;10.088;2022-12-10T21:18:45;46.60;;;19.35;;
20970;SDS011;10644;48.834;10.088;2022-12-10T21:21:20;37.13;;;16.67;;
20970;SDS011;10644;48.834;10.088;2022-12-10T21:23:56;53.42;;;19.10;;
20970;SDS011;10644;48.834;10.088;2022-12-10T21:26:33;129.20;;;29.88;;
20970;SDS011;10644;48.834;10.088;2022-12-10T21:29:02;45.20;;;16.73;;
20970;SDS011;10644;48.834;10.088;2022-12-10T21:31:35;34.47;;;16.88;;
20970;SDS011;10644;48.834;10.088;2022-12-10T21:34:01;38.38;;;18.13;;
20970;SDS011;10644;48.834;10.088;2022-12-10T21:36:36;57.70;;;18.93;;
20970;SDS011;10644;48.834;10.088;2022-12-10T21:39:09;69.00;;;20.27;;
20970;SDS011;10644;48.834;10.088;2022-12-10T21:41:43;46.42;;;18.23;;
20970;SDS011;10644;48.834;10.088;2022-12-10T21:44:33;144.10;;;30.02;;
20970;SDS011;10644;48.834;10.088;2022-12-10T21:47:01;43.38;;;18.70;;
20970;SDS011;10644;48.834;10.088;2022-12-10T21:58:31;48.00;;;19.25;;
20970;SDS011;10644;48.834;10.088;2022-12-10T22:01:08;47.95;;;18.88;;
20970;SDS011;10644;48.834;10.088;2022-12-10T22:06:43;62.85;;;20.45;;
20970;SDS011;10644;48.834;10.088;2022-12-10T22:09:08;120.97;;;30.60;;
20970;SDS011;10644;48.834;10.088;2022-12-10T22:17:49;51.00;;;22.98;;
20970;SDS011;10644;48.834;10.088;2022-12-10T22:20:27;63.88;;;23.77;;